Time;durP1;ratioP1;P1;durP2;ratioP2;P2;SDS_P1;SDS_P2;PMS_P1;PMS_P2;Temp;Humidity;BMP_temperature;BMP_pressure;BME280_temperature;BME280_humidity;BME280_pressure;Samples;Min_cycle;Max_cycle;Signal;HPM_P1;HPM_P2
2023/08/03 00:00:24;;;;;;;13.10;1.83;;;19.20;99.90;;;;;;4877180;29;20045;-83
2023/08/03 00:02:51;;;;;;;13.23;2.10;;;19.30;99.90;;;;;;4876953;29;20049;-83
2023/08/03 00:05:19;;;;;;;7.55;2.13;;;19.30;99.90;;;;;;4887465;29;20060;-84
2023/08/03 00:07:48;;;;;;;11.10;3.35;;;19.30;99.90;;;;;;4874961;29;20077;-83
2023/08/03 00:10:16;;;;;;;10.10;1.85;;;19.20;99.90;;;;;;4890464;29;20093;-83
2023/08/03 00:12:43;;;;;;;10.55;2.10;;;19.20;99.90;;;;;;4875122;29;20061;-84
2023/08/03 00:15:12;;;;;;;9.55;2.40;;;19.20;99.90;;;;;;4878447;29;20049;-83
2023/08/03 00:17:39;;;;;;;11.77;2.00;;;19.20;99.90;;;;;;4891016;29;20117;-82
2023/08/03 00:20:06;;;;;;;10.80;2.30;;;19.20;99.90;;;;;;4880546;29;20073;-84
2023/08/03 00:22:34;;;;;;;9.80;2.22;;;19.20;99.90;;;;;;4875081;29;20458;-83
2023/08/03 00:25:03;;;;;;;14.45;2.58;;;19.20;99.90;;;;;;4878791;29;20064;-83
2023/08/03 00:27:30;;;;;;;11.43;2.13;;;19.20;99.90;;;;;;4885909;29;20054;-82
2023/08/03 00:29:56;;;;;;;12.02;2.95;;;19.30;99.90;;;;;;4874120;29;20060;-85
2023/08/03 00:32:23;;;;;;;12.15;2.33;;;19.30;99.90;;;;;;4896719;29;20075;-85
2023/08/03 00:34:50;;;;;;;11.35;1.77;;;19.30;99.90;;;;;;4887614;29;20053;-85
2023/08/03 00:37:17;;;;;;;9.82;1.77;;;19.30;99.90;;;;;;4887706;29;20057;-84
2023/08/03 00:39:43;;;;;;;9.55;2.05;;;19.30;99.90;;;;;;4878842;29;20081;-85
2023/08/03 00:42:10;;;;;;;8.93;2.00;;;19.30;99.90;;;;;;4887438;29;20057;-84
2023/08/03 00:44:37;;;;;;;9.35;2.00;;;19.30;99.90;;;;;;4886681;29;20050;-84
2023/08/03 00:47:04;;;;;;;7.93;2.20;;;19.30;99.90;;;;;;4896736;29;20089;-83
2023/08/03 00:49:31;;;;;;;16.40;2.53;;;19.40;99.90;;;;;;4899306;29;20514;-83
2023/08/03 00:51:58;;;;;;;10.50;2.00;;;19.40;99.90;;;;;;4877480;29;20053;-85
2023/08/03 00:54:25;;;;;;;14.73;1.95;;;19.40;99.90;;;;;;4883161;29;20049;-85
2023/08/03 00:56:52;;;;;;;9.43;1.83;;;19.40;99.90;;;;;;4882537;29;20570;-84
2023/08/03 00:59:18;;;;;;;12.20;1.90;;;19.40;99.90;;;;;;4877083;29;20062;-83
2023/08/03 01:01:45;;;;;;;18.40;2.08;;;19.50;99.90;;;;;;4877240;29;20497;-85
2023/08/03 01:04:12;;;;;;;7.90;2.05;;;19.40;99.90;;;;;;4880773;29;20068;-84
2023/08/03 01:06:39;;;;;;;13.25;2.38;;;19.40;99.90;;;;;;4874477;29;20046;-85
2023/08/03 01:09:05;;;;;;;11.23;2.70;;;19.30;99.90;;;;;;4887587;29;20053;-84
2023/08/03 01:11:33;;;;;;;10.35;2.30;;;19.40;99.90;;;;;;4875065;29;20065;-84
2023/08/03 01:14:00;;;;;;;11.10;2.28;;;19.40;99.90;;;;;;4879795;29;20063;-83
2023/08/03 01:16:27;;;;;;;10.20;1.60;;;19.40;99.90;;;;;;4890880;29;20057;-84
2023/08/03 01:18:55;;;;;;;9.82;2.25;;;19.40;99.90;;;;;;4880510;29;20064;-84
2023/08/03 01:21:23;;;;;;;9.00;2.13;;;19.40;99.90;;;;;;4867895;29;20135;-83
2023/08/03 01:23:50;;;;;;;6.60;1.75;;;19.30;99.90;;;;;;4873072;29;20063;-84
2023/08/03 01:26:16;;;;;;;10.45;2.00;;;19.40;99.90;;;;;;4887432;29;20077;-85
2023/08/03 01:28:43;;;;;;;6.63;1.45;;;19.40;99.90;;;;;;4888757;29;20078;-85
2023/08/03 01:31:10;;;;;;;11.43;2.15;;;19.40;99.90;;;;;;4887839;29;20474;-84
2023/08/03 01:33:37;;;;;;;10.65;2.00;;;19.30;99.90;;;;;;4883864;29;20490;-84
2023/08/03 01:36:04;;;;;;;7.95;1.80;;;19.30;99.90;;;;;;4890348;29;20057;-83
2023/08/03 01:38:31;;;;;;;6.88;1.70;;;19.40;99.90;;;;;;4875725;29;20062;-85
2023/08/03 01:40:59;;;;;;;7.15;1.83;;;19.40;99.90;;;;;;4878688;29;20049;-84
2023/08/03 01:43:27;;;;;;;12.43;2.85;;;19.40;99.90;;;;;;4871904;29;20045;-83
2023/08/03 01:45:53;;;;;;;7.93;1.40;;;19.40;99.90;;;;;;4882392;29;20097;-84
2023/08/03 01:48:20;;;;;;;8.45;2.15;;;19.30;99.90;;;;;;4884631;29;20047;-82
2023/08/03 01:50:47;;;;;;;12.68;2.28;;;19.30;99.90;;;;;;4874099;29;20056;-83
2023/08/03 01:53:17;;;;;;;6.32;1.40;;;19.30;99.90;;;;;;4872672;29;20175;-84
2023/08/03 01:55:47;;;;;;;10.18;2.38;;;19.30;99.90;;;;;;4877756;29;20057;-83
2023/08/03 01:58:14;;;;;;;12.30;3.25;;;19.40;99.90;;;;;;4881097;29;20494;-83
2023/08/03 02:00:41;;;;;;;6.05;1.65;;;19.30;99.90;;;;;;4885793;29;20045;-83
2023/08/03 02:03:07;;;;;;;10.45;1.65;;;19.30;99.90;;;;;;4878653;29;20061;-84
2023/08/03 02:05:34;;;;;;;9.70;1.90;;;19.30;99.90;;;;;;4887853;29;20049;-83
2023/08/03 02:08:01;;;;;;;10.68;2.28;;;19.30;99.90;;;;;;4871153;29;20076;-84
2023/08/03 02:10:28;;;;;;;8.20;1.75;;;19.30;99.90;;;;;;4875401;29;20045;-84
2023/08/03 02:12:55;;;;;;;17.88;1.90;;;19.30;99.90;;;;;;4871644;29;20124;-83
2023/08/03 02:15:22;;;;;;;6.75;1.48;;;19.30;99.90;;;;;;4878100;29;20060;-82
2023/08/03 02:17:49;;;;;;;7.65;2.05;;;19.30;99.90;;;;;;4878709;29;20049;-85
2023/08/03 02:20:16;;;;;;;12.07;1.63;;;19.30;99.90;;;;;;4892771;29;20181;-84
2023/08/03 02:22:43;;;;;;;9.05;1.80;;;19.30;99.90;;;;;;4876176;29;20096;-85
2023/08/03 02:25:10;;;;;;;7.38;1.55;;;19.30;99.90;;;;;;4896603;29;20476;-84
2023/08/03 02:27:37;;;;;;;7.68;1.60;;;19.20;99.90;;;;;;4888747;29;20459;-84
2023/08/03 02:30:04;;;;;;;6.35;1.60;;;19.20;99.90;;;;;;4888236;29;20131;-84
2023/08/03 02:32:31;;;;;;;7.07;1.70;;;19.20;99.90;;;;;;4878818;29;20074;-85
2023/08/03 02:34:58;;;;;;;14.07;1.73;;;19.10;99.90;;;;;;4879402;29;20474;-85
2023/08/03 02:37:24;;;;;;;11.13;1.80;;;19.20;99.90;;;;;;4871409;29;20045;-83
2023/08/03 02:39:51;;;;;;;13.73;2.10;;;19.20;99.90;;;;;;4891029;29;20101;-83
2023/08/03 02:42:18;;;;;;;8.23;1.40;;;19.10;99.90;;;;;;4874593;29;20467;-84
2023/08/03 02:44:45;;;;;;;7.70;1.80;;;19.10;99.90;;;;;;4886718;29;20091;-85
2023/08/03 02:47:11;;;;;;;13.52;2.10;;;19.10;99.90;;;;;;4875973;29;20049;-84
2023/08/03 02:49:38;;;;;;;9.15;1.40;;;19.10;99.90;;;;;;4877980;29;20097;-85
2023/08/03 02:52:05;;;;;;;8.82;2.65;;;19.00;99.90;;;;;;4886029;29;20049;-85
2023/08/03 02:54:32;;;;;;;7.57;1.67;;;19.00;99.90;;;;;;4876193;29;20049;-85
2023/08/03 02:56:59;;;;;;;8.77;2.05;;;19.00;99.90;;;;;;4890070;29;20049;-83
2023/08/03 02:59:25;;;;;;;8.07;1.40;;;19.00;99.90;;;;;;4881785;29;20044;-82
2023/08/03 03:01:52;;;;;;;7.25;1.58;;;19.00;99.90;;;;;;4873838;29;20045;-85
2023/08/03 03:04:19;;;;;;;6.55;1.33;;;19.00;99.90;;;;;;4880652;29;20448;-85
2023/08/03 03:06:45;;;;;;;13.63;1.75;;;19.00;99.90;;;;;;4886796;29;20061;-84
2023/08/03 03:09:12;;;;;;;5.80;1.42;;;19.00;99.90;;;;;;4875784;29;20465;-84
2023/08/03 03:11:39;;;;;;;7.32;1.65;;;19.00;99.90;;;;;;4880218;29;20050;-85
2023/08/03 03:14:06;;;;;;;6.50;1.50;;;19.00;99.90;;;;;;4905003;29;20057;-84
2023/08/03 03:16:32;;;;;;;9.10;1.45;;;19.00;99.90;;;;;;4878232;29;20462;-85
2023/08/03 03:18:59;;;;;;;8.23;1.60;;;19.00;99.90;;;;;;4882560;29;20050;-82
2023/08/03 03:21:26;;;;;;;8.13;2.13;;;18.90;99.90;;;;;;4875050;29;20486;-84
2023/08/03 03:23:53;;;;;;;10.75;1.98;;;18.90;99.90;;;;;;4877779;29;20053;-84
2023/08/03 03:26:19;;;;;;;9.23;2.50;;;19.00;99.90;;;;;;4890479;29;20074;-82
2023/08/03 03:28:46;;;;;;;6.47;1.17;;;19.00;99.90;;;;;;4902348;29;20049;-83
2023/08/03 03:31:13;;;;;;;5.20;1.13;;;19.00;99.90;;;;;;4879791;29;20049;-85
2023/08/03 03:33:40;;;;;;;8.50;1.30;;;19.00;99.90;;;;;;4894978;29;20048;-83
2023/08/03 03:36:06;;;;;;;8.85;1.33;;;18.90;99.90;;;;;;4877345;29;20053;-83
2023/08/03 03:38:33;;;;;;;7.10;1.10;;;18.90;99.90;;;;;;4889923;29;20536;-82
2023/08/03 03:41:00;;;;;;;7.32;1.45;;;18.90;99.90;;;;;;4898018;29;20057;-85
2023/08/03 03:43:27;;;;;;;8.98;1.27;;;18.90;99.90;;;;;;4885252;29;20441;-85
2023/08/03 03:45:53;;;;;;;5.65;1.10;;;18.90;99.90;;;;;;4868829;29;20045;-84
2023/08/03 03:48:20;;;;;;;6.25;1.10;;;18.90;99.90;;;;;;4876482;29;20081;-82
2023/08/03 03:50:47;;;;;;;4.40;0.85;;;18.80;99.90;;;;;;4881251;29;20048;-83
2023/08/03 03:53:14;;;;;;;8.32;1.48;;;18.80;99.90;;;;;;4886772;29;20053;-83
2023/08/03 03:55:41;;;;;;;7.00;1.50;;;18.80;99.90;;;;;;4892041;29;20084;-83
2023/08/03 03:58:08;;;;;;;4.70;0.75;;;18.80;99.90;;;;;;4881557;29;20079;-84
2023/08/03 04:00:39;;;;;;;7.85;1.92;;;18.80;99.90;;;;;;4869780;29;20087;-83
2023/08/03 04:03:07;;;;;;;10.43;2.22;;;18.80;99.90;;;;;;4873763;29;20082;-83
2023/08/03 04:05:36;;;;;;;6.13;1.15;;;18.80;99.90;;;;;;4888437;29;20088;-84
2023/08/03 04:08:03;;;;;;;6.35;1.17;;;18.80;99.90;;;;;;4891175;29;20109;-84
2023/08/03 04:10:30;;;;;;;5.22;1.10;;;18.80;99.90;;;;;;4897434;29;20465;-83
2023/08/03 04:12:57;;;;;;;5.22;1.10;;;18.80;99.90;;;;;;4884683;29;20060;-84
2023/08/03 04:15:24;;;;;;;4.68;1.00;;;18.80;99.90;;;;;;4886108;29;20096;-84
2023/08/03 04:17:51;;;;;;;5.95;1.25;;;18.80;99.90;;;;;;4875545;29;20049;-83
2023/08/03 04:20:18;;;;;;;6.13;1.63;;;18.80;99.90;;;;;;4878105;29;20104;-83
2023/08/03 04:22:45;;;;;;;5.65;1.65;;;18.90;99.90;;;;;;4880998;29;20056;-84
2023/08/03 04:25:13;;;;;;;6.35;1.20;;;18.80;99.90;;;;;;4895255;29;20057;-85
2023/08/03 04:27:40;;;;;;;4.75;0.90;;;18.80;99.90;;;;;;4879549;29;20501;-83
2023/08/03 04:30:10;;;;;;;4.18;0.80;;;18.80;99.90;;;;;;4871122;29;20054;-83
2023/08/03 04:32:37;;;;;;;3.33;0.90;;;18.70;99.90;;;;;;4872275;29;20068;-84
2023/08/03 04:35:05;;;;;;;7.57;1.30;;;18.70;99.90;;;;;;4873665;29;20128;-82
2023/08/03 04:37:32;;;;;;;6.10;1.35;;;18.70;99.90;;;;;;4882824;29;20080;-84
2023/08/03 04:39:58;;;;;;;4.28;0.93;;;18.70;99.90;;;;;;4879420;29;20112;-83
2023/08/03 04:42:25;;;;;;;7.72;1.13;;;18.70;99.90;;;;;;4891709;29;20658;-85
2023/08/03 04:44:52;;;;;;;11.43;2.80;;;18.70;99.90;;;;;;4876782;29;20053;-84
2023/08/03 04:47:19;;;;;;;6.68;1.65;;;18.70;99.90;;;;;;4875009;29;20052;-83
2023/08/03 04:49:45;;;;;;;3.80;0.93;;;18.70;99.90;;;;;;4880218;29;20046;-85
2023/08/03 04:52:12;;;;;;;6.75;1.00;;;18.70;99.90;;;;;;4888414;29;20057;-84
2023/08/03 04:54:39;;;;;;;4.93;0.90;;;18.70;99.90;;;;;;4884013;29;20060;-85
2023/08/03 04:57:06;;;;;;;3.50;1.25;;;18.70;99.90;;;;;;4879813;29;20508;-85
2023/08/03 04:59:32;;;;;;;3.88;0.80;;;18.70;99.90;;;;;;4879465;29;20059;-83
2023/08/03 05:01:59;;;;;;;6.70;1.20;;;18.60;99.90;;;;;;4887901;29;20097;-84
2023/08/03 05:04:26;;;;;;;5.53;1.10;;;18.70;99.90;;;;;;4880689;29;20135;-84
2023/08/03 05:06:53;;;;;;;4.50;1.00;;;18.60;99.90;;;;;;4882506;29;20056;-85
2023/08/03 05:09:20;;;;;;;4.22;1.00;;;18.60;99.90;;;;;;4889648;29;20041;-82
2023/08/03 05:11:46;;;;;;;6.30;1.08;;;18.70;99.90;;;;;;4888509;29;20053;-84
2023/08/03 05:14:13;;;;;;;3.60;0.80;;;18.70;99.90;;;;;;4882309;29;20064;-82
2023/08/03 05:16:40;;;;;;;3.65;0.93;;;18.70;99.90;;;;;;4876511;29;20132;-83
2023/08/03 05:19:07;;;;;;;3.70;1.00;;;18.70;99.90;;;;;;4880367;29;20057;-83
2023/08/03 05:21:33;;;;;;;3.67;0.88;;;18.60;99.90;;;;;;4887811;29;20057;-84
2023/08/03 05:24:00;;;;;;;2.45;0.50;;;18.70;99.90;;;;;;4885421;29;20049;-83
2023/08/03 05:26:30;;;;;;;3.65;0.85;;;18.70;99.90;;;;;;4890146;29;20445;-84
2023/08/03 05:28:57;;;;;;;3.53;0.90;;;18.70;99.90;;;;;;4879534;29;20064;-84
2023/08/03 05:31:24;;;;;;;5.30;1.05;;;18.70;99.90;;;;;;4873285;29;20101;-84
2023/08/03 05:33:51;;;;;;;5.22;1.02;;;18.70;99.90;;;;;;4891354;29;20070;-85
2023/08/03 05:36:17;;;;;;;5.95;1.00;;;18.60;99.90;;;;;;4873447;29;20045;-84
2023/08/03 05:38:44;;;;;;;2.55;0.80;;;18.60;99.90;;;;;;4876557;29;20508;-82
2023/08/03 05:41:16;;;;;;;2.55;0.57;;;18.60;99.90;;;;;;4876731;29;20045;-83
2023/08/03 05:43:45;;;;;;;4.13;0.70;;;18.60;99.90;;;;;;4879824;29;20467;-83
2023/08/03 05:46:14;;;;;;;1.88;0.60;;;18.70;99.90;;;;;;4885689;29;20054;-84
2023/08/03 05:48:41;;;;;;;2.95;0.60;;;18.70;99.90;;;;;;4876360;29;20055;-84
2023/08/03 05:51:11;;;;;;;3.90;0.77;;;18.70;99.90;;;;;;4888700;29;20078;-84
2023/08/03 05:53:40;;;;;;;3.42;0.82;;;18.70;99.90;;;;;;4877265;29;20094;-85
2023/08/03 05:56:09;;;;;;;5.07;0.95;;;18.70;99.90;;;;;;4892376;29;20489;-83
2023/08/03 05:58:38;;;;;;;2.67;0.77;;;18.70;99.90;;;;;;4882509;29;20049;-84
2023/08/03 06:01:06;;;;;;;3.97;0.88;;;18.60;99.90;;;;;;4884700;29;20053;-85
2023/08/03 06:03:34;;;;;;;4.40;0.60;;;18.70;99.90;;;;;;4883222;29;20104;-84
2023/08/03 06:06:04;;;;;;;2.42;0.95;;;18.70;99.90;;;;;;4873592;29;20052;-85
2023/08/03 06:08:32;;;;;;;4.65;1.27;;;18.70;99.90;;;;;;4876616;29;20045;-85
2023/08/03 06:11:03;;;;;;;3.50;0.98;;;18.70;99.90;;;;;;4884938;29;20602;-84
2023/08/03 06:13:34;;;;;;;2.45;0.85;;;18.80;99.90;;;;;;4876629;29;20061;-84
2023/08/03 06:16:10;;;;;;;2.00;0.73;;;18.80;99.90;;;;;;4870443;29;20053;-84
2023/08/03 06:19:00;;;;;;;3.42;0.80;;;18.90;99.90;;;;;;4880764;29;20394;-84
2023/08/03 06:21:28;;;;;;;3.53;0.70;;;18.90;99.90;;;;;;4881097;29;20053;-83
2023/08/03 06:23:57;;;;;;;5.07;0.80;;;18.90;99.90;;;;;;4896871;29;20062;-84
2023/08/03 06:26:26;;;;;;;3.67;0.93;;;18.90;99.90;;;;;;4883321;29;20101;-84
2023/08/03 06:28:54;;;;;;;2.72;0.80;;;19.00;99.90;;;;;;4896534;29;20060;-85
2023/08/03 06:31:39;;;;;;;5.65;0.80;;;19.00;99.90;;;;;;4869778;29;20045;-84
2023/08/03 06:34:11;;;;;;;4.70;0.57;;;19.00;99.90;;;;;;4893329;29;20049;-83
2023/08/03 06:36:41;;;;;;;3.63;1.65;;;19.10;99.90;;;;;;4893978;29;20051;-83
2023/08/03 06:39:07;;;;;;;2.10;0.70;;;19.10;99.90;;;;;;4882748;29;20090;-83
2023/08/03 06:41:34;;;;;;;4.30;1.27;;;19.20;99.90;;;;;;4892954;29;20045;-84
2023/08/03 06:44:01;;;;;;;1.65;0.70;;;19.20;99.90;;;;;;4878029;29;20056;-83
2023/08/03 06:46:29;;;;;;;3.05;0.98;;;19.30;99.90;;;;;;4879398;29;20731;-84
2023/08/03 06:48:57;;;;;;;3.75;1.17;;;19.40;99.90;;;;;;4879836;29;20045;-81
2023/08/03 06:51:23;;;;;;;3.88;0.95;;;19.40;99.90;;;;;;4883061;29;20053;-85
2023/08/03 06:53:51;;;;;;;3.05;0.70;;;19.40;99.90;;;;;;4897503;29;20054;-85
2023/08/03 06:56:17;;;;;;;6.95;0.98;;;19.30;99.90;;;;;;4883190;29;20073;-84
2023/08/03 06:58:44;;;;;;;5.78;1.15;;;19.30;99.90;;;;;;4880393;29;20061;-85
2023/08/03 07:01:11;;;;;;;6.30;0.93;;;19.30;99.90;;;;;;4880909;29;20524;-85
2023/08/03 07:03:38;;;;;;;4.65;1.10;;;19.30;99.90;;;;;;4878972;29;20109;-85
2023/08/03 07:06:05;;;;;;;5.70;2.10;;;19.30;99.90;;;;;;4896005;29;20081;-84
2023/08/03 07:08:32;;;;;;;2.75;0.77;;;19.20;99.90;;;;;;4883716;29;20455;-82
2023/08/03 07:10:59;;;;;;;3.55;0.75;;;19.20;99.90;;;;;;4877473;29;20120;-84
2023/08/03 07:13:25;;;;;;;2.78;0.70;;;19.20;99.90;;;;;;4878881;29;20049;-85
2023/08/03 07:15:52;;;;;;;2.88;0.80;;;19.20;99.90;;;;;;4871041;29;20061;-84
2023/08/03 07:18:19;;;;;;;2.78;0.90;;;19.20;99.90;;;;;;4877434;29;20049;-84
2023/08/03 07:20:46;;;;;;;3.75;0.90;;;19.20;99.90;;;;;;4894584;29;20083;-85
2023/08/03 07:23:13;;;;;;;4.57;1.27;;;19.20;99.90;;;;;;4893958;29;20069;-85
2023/08/03 07:25:40;;;;;;;4.28;0.80;;;19.20;99.90;;;;;;4892216;29;20041;-85
2023/08/03 07:28:06;;;;;;;4.68;0.80;;;19.10;99.90;;;;;;4896396;29;20063;-85
2023/08/03 07:30:36;;;;;;;4.07;1.00;;;19.20;99.90;;;;;;4892081;29;20056;-84
2023/08/03 07:33:03;;;;;;;4.10;0.95;;;19.20;99.90;;;;;;4890915;29;20068;-86
2023/08/03 07:35:30;;;;;;;6.00;0.90;;;19.20;99.90;;;;;;4889551;29;20049;-86
2023/08/03 07:37:57;;;;;;;5.13;1.02;;;19.20;99.90;;;;;;4884421;29;20049;-84
2023/08/03 07:40:24;;;;;;;2.85;0.80;;;19.30;99.90;;;;;;4889573;29;20049;-87
2023/08/03 07:42:51;;;;;;;3.70;1.13;;;19.30;99.90;;;;;;4882064;29;20050;-86
2023/08/03 07:45:18;;;;;;;6.40;1.20;;;19.30;99.90;;;;;;4897723;29;20060;-85
2023/08/03 07:48:04;;;;;;;2.88;0.77;;;19.40;99.90;;;;;;4888514;29;20136;-85
2023/08/03 07:50:31;;;;;;;3.80;0.70;;;19.50;99.90;;;;;;4901461;29;20127;-86
2023/08/03 07:52:58;;;;;;;5.43;0.98;;;19.60;99.90;;;;;;4898563;29;20062;-86
2023/08/03 07:55:25;;;;;;;4.30;1.25;;;19.70;99.90;;;;;;4888189;29;20053;-86
2023/08/03 07:57:52;;;;;;;4.45;0.63;;;19.80;99.90;;;;;;4883403;29;20518;-86
2023/08/03 08:00:20;;;;;;;1.75;0.60;;;19.90;99.90;;;;;;4877692;29;20102;-84
2023/08/03 08:02:47;;;;;;;5.00;0.90;;;19.80;99.90;;;;;;4883653;29;20045;-86
2023/08/03 08:05:14;;;;;;;5.53;0.90;;;19.90;99.90;;;;;;4885246;29;20132;-85
2023/08/03 08:07:42;;;;;;;4.50;0.73;;;19.90;99.90;;;;;;4886769;29;20063;-85
2023/08/03 08:10:12;;;;;;;3.53;0.70;;;20.00;99.90;;;;;;4879987;29;20049;-86
2023/08/03 08:12:39;;;;;;;3.85;0.68;;;20.00;99.90;;;;;;4880432;29;20561;-85
2023/08/03 08:15:06;;;;;;;4.78;0.80;;;20.10;99.90;;;;;;4889366;29;20179;-85
2023/08/03 08:17:32;;;;;;;5.03;0.73;;;20.10;99.90;;;;;;4889261;29;20083;-86
2023/08/03 08:19:59;;;;;;;2.05;0.60;;;20.10;99.90;;;;;;4881473;29;20072;-85
2023/08/03 08:22:26;;;;;;;3.45;0.85;;;20.20;99.90;;;;;;4882468;29;20112;-86
2023/08/03 08:24:53;;;;;;;6.82;1.25;;;20.20;99.90;;;;;;4879042;29;20101;-86
2023/08/03 08:27:20;;;;;;;2.80;0.50;;;20.20;99.90;;;;;;4881038;29;20121;-86
2023/08/03 08:29:47;;;;;;;3.50;0.70;;;20.30;99.90;;;;;;4878394;29;20057;-85
2023/08/03 08:32:14;;;;;;;4.07;0.95;;;20.30;99.90;;;;;;4878522;29;20417;-84
2023/08/03 08:34:41;;;;;;;2.60;0.60;;;20.30;99.90;;;;;;4898898;29;20049;-86
2023/08/03 08:37:08;;;;;;;4.28;0.93;;;20.30;99.90;;;;;;4884329;29;20049;-86
2023/08/03 08:39:35;;;;;;;5.32;0.90;;;20.30;99.90;;;;;;4881271;29;20069;-86
2023/08/03 08:42:13;;;;;;;3.53;0.93;;;20.30;99.90;;;;;;4880850;29;20061;-83
2023/08/03 08:44:40;;;;;;;3.40;0.55;;;20.30;99.90;;;;;;4881563;29;20042;-86
2023/08/03 08:47:07;;;;;;;2.55;0.50;;;20.30;99.90;;;;;;4882703;29;20066;-86
2023/08/03 08:49:34;;;;;;;2.95;0.65;;;20.20;99.90;;;;;;4887240;29;20041;-85
2023/08/03 08:52:05;;;;;;;3.35;0.77;;;20.30;99.90;;;;;;4887851;29;20049;-87
2023/08/03 08:54:33;;;;;;;3.08;0.80;;;20.30;99.90;;;;;;4883795;29;20052;-86
2023/08/03 08:57:03;;;;;;;3.17;1.20;;;20.40;99.90;;;;;;4888811;29;20052;-86
2023/08/03 09:00:03;;;;;;;4.20;0.60;;;20.40;99.90;;;;;;4882560;29;20060;-85
2023/08/03 09:02:30;;;;;;;1.88;0.60;;;20.50;99.90;;;;;;4896662;29;20049;-86
2023/08/03 09:05:07;;;;;;;3.53;0.80;;;20.60;99.90;;;;;;4894883;29;20074;-86
2023/08/03 09:07:34;;;;;;;2.75;0.68;;;20.80;99.90;;;;;;4898088;29;20052;-86
2023/08/03 09:10:02;;;;;;;3.25;0.82;;;20.80;99.90;;;;;;4890254;29;20108;-86
2023/08/03 09:12:29;;;;;;;2.83;0.70;;;20.80;99.90;;;;;;4901288;29;20049;-84
2023/08/03 09:14:57;;;;;;;4.38;0.93;;;20.90;99.90;;;;;;4886596;29;20049;-85
2023/08/03 09:17:25;;;;;;;2.78;1.13;;;20.90;99.90;;;;;;4887045;29;20045;-86
2023/08/03 09:19:53;;;;;;;2.92;0.63;;;20.90;99.90;;;;;;4881951;29;20540;-85
2023/08/03 09:22:24;;;;;;;2.75;0.60;;;20.90;99.90;;;;;;4886896;29;20294;-84
2023/08/03 09:25:09;;;;;;;3.67;0.68;;;20.90;99.90;;;;;;4899454;29;20080;-85
2023/08/03 09:27:37;;;;;;;3.20;0.63;;;20.80;99.90;;;;;;4884058;29;20049;-86
2023/08/03 09:30:07;;;;;;;3.22;1.05;;;21.00;99.90;;;;;;4886195;29;20057;-86
2023/08/03 09:32:37;;;;;;;2.10;0.70;;;21.00;99.90;;;;;;4884520;29;20053;-85
2023/08/03 09:35:25;;;;;;;2.90;0.80;;;21.10;99.90;;;;;;4883019;29;20432;-87
2023/08/03 09:37:54;;;;;;;2.47;0.57;;;21.20;99.90;;;;;;4881646;29;20053;-85
2023/08/03 09:40:23;;;;;;;6.13;1.50;;;21.20;99.90;;;;;;4879504;29;20061;-86
2023/08/03 09:42:52;;;;;;;3.63;0.70;;;21.30;99.90;;;;;;4894314;29;20057;-86
2023/08/03 09:45:18;;;;;;;5.45;1.02;;;21.30;99.90;;;;;;4882457;29;20049;-87
2023/08/03 09:47:50;;;;;;;1.95;0.55;;;21.30;99.90;;;;;;4882523;29;20053;-85
2023/08/03 09:50:18;;;;;;;1.63;0.47;;;21.40;99.90;;;;;;4878281;29;20640;-85
2023/08/03 09:52:49;;;;;;;1.85;0.50;;;21.40;99.90;;;;;;4878040;29;20072;-86
2023/08/03 09:55:27;;;;;;;4.35;0.77;;;21.30;99.90;;;;;;4889462;29;20073;-86
2023/08/03 09:58:06;;;;;;;3.22;0.60;;;21.40;99.90;;;;;;4888634;29;20438;-86
2023/08/03 10:00:33;;;;;;;1.90;0.50;;;21.40;99.90;;;;;;4888975;29;20508;-82
2023/08/03 10:03:10;;;;;;;3.55;0.65;;;21.50;99.90;;;;;;4882480;29;20092;-85
2023/08/03 10:06:01;;;;;;;2.63;0.50;;;21.60;99.90;;;;;;4890385;29;20088;-86
2023/08/03 10:08:36;;;;;;;2.25;0.60;;;21.60;99.90;;;;;;4881699;29;20431;-85
2023/08/03 10:11:05;;;;;;;2.13;0.57;;;21.70;99.90;;;;;;4887451;29;20049;-85
2023/08/03 10:13:33;;;;;;;1.48;0.45;;;21.60;99.90;;;;;;4887505;29;20053;-86
2023/08/03 10:16:03;;;;;;;3.28;0.98;;;21.40;99.90;;;;;;4888131;29;20052;-85
2023/08/03 10:18:33;;;;;;;2.50;0.70;;;21.50;99.90;;;;;;4879138;29;20072;-84
2023/08/03 10:21:21;;;;;;;1.58;0.55;;;21.50;99.90;;;;;;4882447;29;20092;-85
2023/08/03 10:24:07;;;;;;;2.33;0.60;;;21.60;99.90;;;;;;4900589;29;20109;-85
2023/08/03 10:26:36;;;;;;;3.40;0.80;;;21.60;99.90;;;;;;4880397;29;20050;-85
2023/08/03 10:29:04;;;;;;;3.70;0.80;;;21.70;99.90;;;;;;4901060;29;20041;-83
2023/08/03 10:31:31;;;;;;;1.77;0.50;;;21.80;99.90;;;;;;4903059;29;20056;-84
2023/08/03 10:33:58;;;;;;;3.33;0.65;;;21.90;99.90;;;;;;4877187;29;20084;-86
2023/08/03 10:36:28;;;;;;;1.67;1.08;;;22.00;99.90;;;;;;4883456;29;20063;-86
2023/08/03 10:39:11;;;;;;;1.48;0.65;;;22.10;99.90;;;;;;4880164;29;20105;-85
2023/08/03 10:41:46;;;;;;;3.58;0.50;;;22.20;99.90;;;;;;4885542;29;20053;-85
2023/08/03 10:44:13;;;;;;;6.65;1.33;;;22.20;99.90;;;;;;4895763;29;20049;-86
2023/08/03 10:46:58;;;;;;;3.97;0.60;;;22.20;99.90;;;;;;4895776;29;20041;-84
2023/08/03 10:49:27;;;;;;;5.03;0.60;;;22.30;99.90;;;;;;4891432;29;20057;-86
2023/08/03 10:51:55;;;;;;;4.53;0.70;;;22.40;99.90;;;;;;4882696;29;20132;-84
2023/08/03 10:54:29;;;;;;;2.28;0.47;;;22.40;99.90;;;;;;4885346;29;20061;-85
2023/08/03 10:57:11;;;;;;;2.95;0.40;;;22.50;99.90;;;;;;4882628;29;20136;-84
2023/08/03 10:59:46;;;;;;;2.72;0.50;;;22.50;99.90;;;;;;4883412;29;20057;-85
2023/08/03 11:02:28;;;;;;;3.20;0.77;;;22.50;99.90;;;;;;4918382;23;20044;-80
2023/08/03 11:05:00;;;;;;;2.13;0.55;;;22.40;99.90;;;;;;4911863;29;20071;-80
2023/08/03 11:07:39;;;;;;;1.92;0.52;;;22.50;99.90;;;;;;4913056;29;20040;-80
2023/08/03 11:10:11;;;;;;;3.55;0.52;;;22.30;99.90;;;;;;4913139;29;20071;-80
2023/08/03 11:12:39;;;;;;;1.02;0.50;;;22.30;99.90;;;;;;4902366;29;20053;-79
2023/08/03 11:15:07;;;;;;;2.28;0.70;;;22.40;99.90;;;;;;4914101;29;20056;-80
2023/08/03 11:17:36;;;;;;;1.45;0.43;;;22.40;99.90;;;;;;4900271;29;20560;-81
2023/08/03 11:20:05;;;;;;;5.65;0.63;;;22.50;99.90;;;;;;4917033;29;20072;-80
2023/08/03 11:22:32;;;;;;;1.42;0.50;;;22.60;99.90;;;;;;4900054;29;20053;-80
2023/08/03 11:25:03;;;;;;;2.80;0.73;;;22.60;99.90;;;;;;4901324;29;20041;-79
2023/08/03 11:27:31;;;;;;;1.02;0.30;;;22.50;99.90;;;;;;4898931;29;20052;-83
2023/08/03 11:29:58;;;;;;;2.25;0.68;;;22.40;99.90;;;;;;4900844;29;20049;-80
2023/08/03 11:32:29;;;;;;;2.83;0.65;;;22.30;99.90;;;;;;4899272;29;20044;-81
2023/08/03 11:34:59;;;;;;;3.10;0.50;;;22.20;99.90;;;;;;4899897;29;20068;-80
2023/08/03 11:37:35;;;;;;;3.83;0.90;;;22.00;99.90;;;;;;4900325;29;20060;-81
2023/08/03 11:40:05;;;;;;;4.90;0.60;;;22.00;99.90;;;;;;4900078;29;20052;-81
2023/08/03 11:42:36;;;;;;;1.88;0.52;;;22.00;99.90;;;;;;4899267;29;20178;-80
2023/08/03 11:45:04;;;;;;;4.07;0.60;;;22.00;99.90;;;;;;4899610;29;20075;-79
2023/08/03 11:47:45;;;;;;;1.75;0.60;;;22.10;99.90;;;;;;4899197;29;20420;-80
2023/08/03 11:50:19;;;;;;;4.15;0.70;;;22.20;99.90;;;;;;4902735;29;20085;-81
2023/08/03 11:52:46;;;;;;;2.15;0.70;;;22.30;99.90;;;;;;4897823;29;20048;-80
2023/08/03 11:55:30;;;;;;;1.30;0.60;;;22.40;99.90;;;;;;4900550;29;20056;-81
2023/08/03 11:58:07;;;;;;;2.28;0.95;;;22.40;99.90;;;;;;4897950;29;20044;-80
2023/08/03 12:00:36;;;;;;;4.75;0.88;;;22.40;99.90;;;;;;4913374;29;20099;-81
2023/08/03 12:03:03;;;;;;;3.05;0.50;;;22.20;99.90;;;;;;4897369;29;20205;-81
2023/08/03 12:05:47;;;;;;;2.55;0.75;;;22.30;99.90;;;;;;4902453;29;20056;-80
2023/08/03 12:08:22;;;;;;;2.05;0.95;;;22.30;99.90;;;;;;4901559;29;20052;-80
2023/08/03 12:11:06;;;;;;;1.25;0.43;;;22.30;99.90;;;;;;4897210;29;20117;-80
2023/08/03 12:13:33;;;;;;;3.40;0.77;;;22.30;99.90;;;;;;4900008;29;20064;-80
2023/08/03 12:16:05;;;;;;;3.50;0.65;;;22.20;99.90;;;;;;4896332;29;20058;-81
2023/08/03 12:18:32;;;;;;;2.95;0.52;;;22.30;99.90;;;;;;4896280;29;20492;-80
2023/08/03 12:20:58;;;;;;;4.00;0.88;;;22.40;99.90;;;;;;4902088;29;20053;-80
2023/08/03 12:23:29;;;;;;;;;;;22.40;99.90;;;;;;4900528;29;20064;-80
2023/08/03 12:25:56;;;;;;;4.55;0.52;;;22.40;99.90;;;;;;4899201;29;19947;-80
2023/08/03 12:28:23;;;;;;;1.13;0.30;;;22.50;99.90;;;;;;4895042;29;20057;-81
2023/08/03 12:30:53;;;;;;;;;;;22.50;99.90;;;;;;4915933;29;20049;-81
2023/08/03 12:33:20;;;;;;;1.30;0.40;;;22.50;99.90;;;;;;4899546;29;19923;-81
2023/08/03 12:35:47;;;;;;;4.53;0.55;;;22.60;99.90;;;;;;4900327;29;20057;-81
2023/08/03 12:38:13;;;;;;;3.15;0.70;;;22.80;99.90;;;;;;4899156;29;20052;-82
2023/08/03 12:40:42;;;;;;;4.75;0.60;;;22.80;99.90;;;;;;4901754;29;20051;-82
2023/08/03 12:43:08;;;;;;;1.65;0.52;;;22.90;99.90;;;;;;4902142;29;20512;-82
2023/08/03 12:45:35;;;;;;;1.80;0.60;;;23.00;99.90;;;;;;4900454;29;20662;-82
2023/08/03 12:48:02;;;;;;;4.03;0.47;;;23.10;99.90;;;;;;4902731;29;20049;-82
2023/08/03 12:50:44;;;;;;;;;;;23.00;99.90;;;;;;4902328;29;20115;-82
2023/08/03 12:53:13;;;;;;;4.25;1.02;;;23.10;99.90;;;;;;4907834;29;19931;-82